sensor_id;sensor_type;location;lat;lon;timestamp;P1;durP1;ratioP1;P2;durP2;ratioP2
21671;SDS011;10997;52.242;8.168;2023-08-17T00:02:42;9.10;;;2.75;;
21671;SDS011;10997;52.242;8.168;2023-08-17T00:07:42;5.55;;;2.40;;
21671;SDS011;10997;52.242;8.168;2023-08-17T00:12:43;6.78;;;2.40;;
21671;SDS011;10997;52.242;8.168;2023-08-17T00:17:43;5.47;;;2.20;;
21671;SDS011;10997;52.242;8.168;2023-08-17T00:22:44;9.90;;;3.05;;
21671;SDS011;10997;52.242;8.168;2023-08-17T00:27:44;6.38;;;2.40;;
21671;SDS011;10997;52.242;8.168;2023-08-17T00:32:45;13.23;;;3.17;;
21671;SDS011;10997;52.242;8.168;2023-08-17T00:37:46;7.78;;;2.63;;
21671;SDS011;10997;52.242;8.168;2023-08-17T00:42:46;10.85;;;2.75;;
21671;SDS011;10997;52.242;8.168;2023-08-17T00:47:47;7.05;;;2.53;;
21671;SDS011;10997;52.242;8.168;2023-08-17T00:52:47;12.55;;;2.50;;
21671;SDS011;10997;52.242;8.168;2023-08-17T00:57:48;5.53;;;2.20;;
21671;SDS011;10997;52.242;8.168;2023-08-17T01:02:49;6.50;;;2.60;;
21671;SDS011;10997;52.242;8.168;2023-08-17T01:07:51;7.22;;;2.90;;
21671;SDS011;10997;52.242;8.168;2023-08-17T01:13:00;7.47;;;2.60;;
21671;SDS011;10997;52.242;8.168;2023-08-17T01:23:22;7.40;;;3.05;;
21671;SDS011;10997;52.242;8.168;2023-08-17T01:28:23;5.97;;;2.60;;
21671;SDS011;10997;52.242;8.168;2023-08-17T01:33:28;7.78;;;2.75;;
21671;SDS011;10997;52.242;8.168;2023-08-17T01:38:40;8.38;;;2.80;;
21671;SDS011;10997;52.242;8.168;2023-08-17T01:43:42;6.72;;;2.45;;
21671;SDS011;10997;52.242;8.168;2023-08-17T01:53:48;6.20;;;2.50;;
21671;SDS011;10997;52.242;8.168;2023-08-17T01:58:49;8.73;;;3.03;;
21671;SDS011;10997;52.242;8.168;2023-08-17T02:03:49;12.30;;;2.78;;
21671;SDS011;10997;52.242;8.168;2023-08-17T02:08:50;7.25;;;2.60;;
21671;SDS011;10997;52.242;8.168;2023-08-17T02:13:51;8.20;;;2.50;;
21671;SDS011;10997;52.242;8.168;2023-08-17T02:18:52;4.82;;;2.70;;
21671;SDS011;10997;52.242;8.168;2023-08-17T02:23:52;9.18;;;2.60;;
21671;SDS011;10997;52.242;8.168;2023-08-17T02:28:53;8.57;;;2.60;;
21671;SDS011;10997;52.242;8.168;2023-08-17T02:33:54;8.63;;;2.72;;
21671;SDS011;10997;52.242;8.168;2023-08-17T02:38:58;6.63;;;2.92;;
21671;SDS011;10997;52.242;8.168;2023-08-17T02:43:59;6.97;;;2.42;;
21671;SDS011;10997;52.242;8.168;2023-08-17T02:49:00;6.25;;;2.22;;
21671;SDS011;10997;52.242;8.168;2023-08-17T02:54:01;7.28;;;2.63;;
21671;SDS011;10997;52.242;8.168;2023-08-17T02:59:02;9.23;;;2.67;;
21671;SDS011;10997;52.242;8.168;2023-08-17T03:04:02;7.55;;;2.67;;
21671;SDS011;10997;52.242;8.168;2023-08-17T03:09:03;8.70;;;2.75;;
21671;SDS011;10997;52.242;8.168;2023-08-17T03:14:04;8.68;;;2.70;;
21671;SDS011;10997;52.242;8.168;2023-08-17T03:19:05;7.15;;;3.17;;
21671;SDS011;10997;52.242;8.168;2023-08-17T03:24:07;8.55;;;3.20;;
21671;SDS011;10997;52.242;8.168;2023-08-17T03:29:08;8.00;;;3.20;;
21671;SDS011;10997;52.242;8.168;2023-08-17T03:34:09;9.20;;;3.13;;
21671;SDS011;10997;52.242;8.168;2023-08-17T03:39:10;8.27;;;3.10;;
21671;SDS011;10997;52.242;8.168;2023-08-17T03:44:11;6.00;;;2.85;;
21671;SDS011;10997;52.242;8.168;2023-08-17T03:49:13;13.40;;;3.42;;
21671;SDS011;10997;52.242;8.168;2023-08-17T03:54:14;7.50;;;3.33;;
21671;SDS011;10997;52.242;8.168;2023-08-17T03:59:15;5.88;;;3.10;;
21671;SDS011;10997;52.242;8.168;2023-08-17T04:04:15;10.88;;;2.92;;
21671;SDS011;10997;52.242;8.168;2023-08-17T04:09:16;8.40;;;3.40;;
21671;SDS011;10997;52.242;8.168;2023-08-17T04:14:16;9.00;;;3.65;;
21671;SDS011;10997;52.242;8.168;2023-08-17T04:19:17;9.02;;;3.92;;
21671;SDS011;10997;52.242;8.168;2023-08-17T04:24:17;7.25;;;3.60;;
21671;SDS011;10997;52.242;8.168;2023-08-17T04:29:18;8.23;;;3.83;;
21671;SDS011;10997;52.242;8.168;2023-08-17T04:34:18;5.90;;;3.47;;
21671;SDS011;10997;52.242;8.168;2023-08-17T04:39:19;10.55;;;4.00;;
21671;SDS011;10997;52.242;8.168;2023-08-17T04:44:20;10.27;;;4.20;;
21671;SDS011;10997;52.242;8.168;2023-08-17T04:49:20;8.57;;;4.20;;
21671;SDS011;10997;52.242;8.168;2023-08-17T04:54:21;10.07;;;3.85;;
21671;SDS011;10997;52.242;8.168;2023-08-17T04:59:21;12.10;;;4.40;;
21671;SDS011;10997;52.242;8.168;2023-08-17T05:04:22;8.00;;;4.10;;
21671;SDS011;10997;52.242;8.168;2023-08-17T05:09:23;12.43;;;4.60;;
21671;SDS011;10997;52.242;8.168;2023-08-17T05:14:23;8.00;;;4.10;;
21671;SDS011;10997;52.242;8.168;2023-08-17T05:19:24;7.85;;;4.22;;
21671;SDS011;10997;52.242;8.168;2023-08-17T05:24:25;7.70;;;4.35;;
21671;SDS011;10997;52.242;8.168;2023-08-17T05:29:25;6.88;;;4.03;;
21671;SDS011;10997;52.242;8.168;2023-08-17T05:34:26;11.13;;;4.68;;
21671;SDS011;10997;52.242;8.168;2023-08-17T05:39:27;10.10;;;4.80;;
21671;SDS011;10997;52.242;8.168;2023-08-17T05:44:27;10.77;;;4.82;;
21671;SDS011;10997;52.242;8.168;2023-08-17T05:49:28;7.75;;;4.13;;
21671;SDS011;10997;52.242;8.168;2023-08-17T05:54:28;9.82;;;4.55;;
21671;SDS011;10997;52.242;8.168;2023-08-17T05:59:29;9.75;;;4.70;;
21671;SDS011;10997;52.242;8.168;2023-08-17T06:04:29;10.10;;;4.72;;
21671;SDS011;10997;52.242;8.168;2023-08-17T06:09:30;9.63;;;4.60;;
21671;SDS011;10997;52.242;8.168;2023-08-17T06:14:31;11.23;;;4.40;;
21671;SDS011;10997;52.242;8.168;2023-08-17T06:19:32;7.70;;;4.55;;
21671;SDS011;10997;52.242;8.168;2023-08-17T06:24:33;7.20;;;4.20;;
21671;SDS011;10997;52.242;8.168;2023-08-17T06:29:34;8.85;;;4.28;;
21671;SDS011;10997;52.242;8.168;2023-08-17T06:34:34;11.50;;;4.80;;
21671;SDS011;10997;52.242;8.168;2023-08-17T06:39:35;11.20;;;4.70;;
21671;SDS011;10997;52.242;8.168;2023-08-17T06:44:35;8.80;;;4.43;;
21671;SDS011;10997;52.242;8.168;2023-08-17T06:49:36;11.23;;;4.78;;
21671;SDS011;10997;52.242;8.168;2023-08-17T06:54:37;12.27;;;5.30;;
21671;SDS011;10997;52.242;8.168;2023-08-17T06:59:37;13.75;;;4.65;;
21671;SDS011;10997;52.242;8.168;2023-08-17T07:04:38;12.73;;;5.70;;
21671;SDS011;10997;52.242;8.168;2023-08-17T07:09:38;14.13;;;5.90;;
21671;SDS011;10997;52.242;8.168;2023-08-17T07:14:39;11.18;;;5.47;;
21671;SDS011;10997;52.242;8.168;2023-08-17T07:19:39;15.88;;;5.57;;
21671;SDS011;10997;52.242;8.168;2023-08-17T07:24:40;14.63;;;6.70;;
21671;SDS011;10997;52.242;8.168;2023-08-17T07:29:41;14.48;;;7.07;;
21671;SDS011;10997;52.242;8.168;2023-08-17T07:34:41;12.45;;;7.13;;
21671;SDS011;10997;52.242;8.168;2023-08-17T07:39:42;13.73;;;7.57;;
21671;SDS011;10997;52.242;8.168;2023-08-17T07:44:42;13.32;;;7.85;;
21671;SDS011;10997;52.242;8.168;2023-08-17T07:49:43;13.85;;;8.77;;
21671;SDS011;10997;52.242;8.168;2023-08-17T07:54:44;16.02;;;8.88;;
21671;SDS011;10997;52.242;8.168;2023-08-17T07:59:45;17.42;;;9.35;;
21671;SDS011;10997;52.242;8.168;2023-08-17T08:04:46;18.20;;;8.45;;
21671;SDS011;10997;52.242;8.168;2023-08-17T08:09:46;17.42;;;9.48;;
21671;SDS011;10997;52.242;8.168;2023-08-17T08:14:47;17.52;;;9.35;;
21671;SDS011;10997;52.242;8.168;2023-08-17T08:19:48;15.32;;;9.18;;
21671;SDS011;10997;52.242;8.168;2023-08-17T08:24:50;16.02;;;9.27;;
21671;SDS011;10997;52.242;8.168;2023-08-17T08:29:51;20.60;;;10.10;;
21671;SDS011;10997;52.242;8.168;2023-08-17T08:34:52;15.02;;;9.90;;
21671;SDS011;10997;52.242;8.168;2023-08-17T08:39:53;18.33;;;9.50;;
21671;SDS011;10997;52.242;8.168;2023-08-17T08:44:54;13.07;;;10.05;;
21671;SDS011;10997;52.242;8.168;2023-08-17T08:50:01;17.02;;;9.88;;
21671;SDS011;10997;52.242;8.168;2023-08-17T08:55:06;18.63;;;9.95;;
21671;SDS011;10997;52.242;8.168;2023-08-17T09:00:13;16.75;;;9.38;;
21671;SDS011;10997;52.242;8.168;2023-08-17T09:05:13;14.32;;;8.98;;
21671;SDS011;10997;52.242;8.168;2023-08-17T09:10:14;14.73;;;9.27;;
21671;SDS011;10997;52.242;8.168;2023-08-17T09:15:16;15.93;;;9.65;;
21671;SDS011;10997;52.242;8.168;2023-08-17T09:20:34;15.70;;;9.63;;
21671;SDS011;10997;52.242;8.168;2023-08-17T09:25:35;16.10;;;9.60;;
21671;SDS011;10997;52.242;8.168;2023-08-17T09:35:59;13.48;;;10.35;;
21671;SDS011;10997;52.242;8.168;2023-08-17T09:41:00;14.70;;;9.95;;
21671;SDS011;10997;52.242;8.168;2023-08-17T09:46:00;21.40;;;10.90;;
21671;SDS011;10997;52.242;8.168;2023-08-17T09:51:03;24.45;;;10.70;;
21671;SDS011;10997;52.242;8.168;2023-08-17T09:56:05;24.27;;;11.02;;
21671;SDS011;10997;52.242;8.168;2023-08-17T10:01:10;20.20;;;10.95;;
21671;SDS011;10997;52.242;8.168;2023-08-17T10:06:13;14.23;;;10.32;;
21671;SDS011;10997;52.242;8.168;2023-08-17T10:11:20;29.75;;;12.30;;
21671;SDS011;10997;52.242;8.168;2023-08-17T10:16:24;16.92;;;11.02;;
21671;SDS011;10997;52.242;8.168;2023-08-17T10:26:31;19.48;;;11.77;;
21671;SDS011;10997;52.242;8.168;2023-08-17T10:31:37;17.10;;;12.27;;
21671;SDS011;10997;52.242;8.168;2023-08-17T10:36:38;21.53;;;12.83;;
21671;SDS011;10997;52.242;8.168;2023-08-17T10:41:46;26.02;;;13.52;;
21671;SDS011;10997;52.242;8.168;2023-08-17T10:46:49;21.42;;;14.50;;
21671;SDS011;10997;52.242;8.168;2023-08-17T10:52:02;19.42;;;14.27;;
21671;SDS011;10997;52.242;8.168;2023-08-17T11:02:31;18.98;;;13.77;;
21671;SDS011;10997;52.242;8.168;2023-08-17T11:07:42;18.77;;;13.18;;
21671;SDS011;10997;52.242;8.168;2023-08-17T11:12:44;20.05;;;13.02;;
21671;SDS011;10997;52.242;8.168;2023-08-17T11:17:44;16.10;;;11.68;;
21671;SDS011;10997;52.242;8.168;2023-08-17T11:22:46;21.15;;;12.32;;
21671;SDS011;10997;52.242;8.168;2023-08-17T11:27:47;17.02;;;11.35;;
21671;SDS011;10997;52.242;8.168;2023-08-17T11:32:51;16.55;;;11.00;;
21671;SDS011;10997;52.242;8.168;2023-08-17T11:37:52;12.57;;;10.20;;
21671;SDS011;10997;52.242;8.168;2023-08-17T11:42:53;13.88;;;10.48;;
21671;SDS011;10997;52.242;8.168;2023-08-17T11:47:53;16.90;;;10.15;;
21671;SDS011;10997;52.242;8.168;2023-08-17T11:52:54;29.52;;;11.38;;
21671;SDS011;10997;52.242;8.168;2023-08-17T11:57:54;15.68;;;9.73;;
21671;SDS011;10997;52.242;8.168;2023-08-17T12:02:55;13.48;;;10.23;;
21671;SDS011;10997;52.242;8.168;2023-08-17T12:07:56;12.30;;;9.60;;
21671;SDS011;10997;52.242;8.168;2023-08-17T12:12:59;17.13;;;10.55;;
21671;SDS011;10997;52.242;8.168;2023-08-17T12:18:02;14.77;;;9.95;;
21671;SDS011;10997;52.242;8.168;2023-08-17T12:23:03;15.85;;;11.48;;
21671;SDS011;10997;52.242;8.168;2023-08-17T12:28:04;16.38;;;10.57;;
21671;SDS011;10997;52.242;8.168;2023-08-17T12:33:05;14.13;;;10.65;;
21671;SDS011;10997;52.242;8.168;2023-08-17T12:38:05;12.90;;;9.95;;
21671;SDS011;10997;52.242;8.168;2023-08-17T12:43:06;11.52;;;9.35;;
21671;SDS011;10997;52.242;8.168;2023-08-17T12:48:07;14.10;;;9.68;;
21671;SDS011;10997;52.242;8.168;2023-08-17T12:53:07;11.88;;;8.25;;
21671;SDS011;10997;52.242;8.168;2023-08-17T12:58:08;12.02;;;8.80;;
21671;SDS011;10997;52.242;8.168;2023-08-17T13:03:09;12.88;;;8.85;;
21671;SDS011;10997;52.242;8.168;2023-08-17T13:08:10;11.63;;;8.88;;
21671;SDS011;10997;52.242;8.168;2023-08-17T13:13:11;11.35;;;8.40;;
21671;SDS011;10997;52.242;8.168;2023-08-17T13:18:11;11.38;;;7.18;;
21671;SDS011;10997;52.242;8.168;2023-08-17T13:23:12;14.65;;;8.40;;
21671;SDS011;10997;52.242;8.168;2023-08-17T13:28:13;11.70;;;8.10;;
21671;SDS011;10997;52.242;8.168;2023-08-17T13:33:13;12.73;;;8.48;;
21671;SDS011;10997;52.242;8.168;2023-08-17T13:38:16;11.57;;;8.43;;
21671;SDS011;10997;52.242;8.168;2023-08-17T13:43:17;10.13;;;7.50;;
21671;SDS011;10997;52.242;8.168;2023-08-17T13:48:17;9.68;;;6.90;;
21671;SDS011;10997;52.242;8.168;2023-08-17T13:53:18;8.82;;;6.35;;
21671;SDS011;10997;52.242;8.168;2023-08-17T13:58:18;9.32;;;6.82;;
21671;SDS011;10997;52.242;8.168;2023-08-17T14:03:19;9.07;;;6.45;;
21671;SDS011;10997;52.242;8.168;2023-08-17T14:08:20;8.80;;;6.50;;
21671;SDS011;10997;52.242;8.168;2023-08-17T14:13:20;9.00;;;6.30;;
21671;SDS011;10997;52.242;8.168;2023-08-17T14:18:21;8.10;;;6.38;;
21671;SDS011;10997;52.242;8.168;2023-08-17T14:23:22;7.78;;;5.90;;
21671;SDS011;10997;52.242;8.168;2023-08-17T14:28:22;9.65;;;5.70;;
21671;SDS011;10997;52.242;8.168;2023-08-17T14:33:23;10.35;;;5.90;;
21671;SDS011;10997;52.242;8.168;2023-08-17T14:38:24;8.00;;;5.38;;
21671;SDS011;10997;52.242;8.168;2023-08-17T14:43:24;9.73;;;4.90;;
21671;SDS011;10997;52.242;8.168;2023-08-17T14:48:25;7.65;;;5.10;;
21671;SDS011;10997;52.242;8.168;2023-08-17T14:53:26;7.88;;;4.70;;
21671;SDS011;10997;52.242;8.168;2023-08-17T14:58:26;7.03;;;4.03;;
21671;SDS011;10997;52.242;8.168;2023-08-17T15:03:27;6.38;;;4.05;;
21671;SDS011;10997;52.242;8.168;2023-08-17T15:08:28;5.00;;;3.92;;
21671;SDS011;10997;52.242;8.168;2023-08-17T15:13:28;6.97;;;4.50;;
21671;SDS011;10997;52.242;8.168;2023-08-17T15:18:29;7.50;;;4.30;;
21671;SDS011;10997;52.242;8.168;2023-08-17T15:23:29;5.30;;;4.18;;
21671;SDS011;10997;52.242;8.168;2023-08-17T15:28:30;9.95;;;4.80;;
21671;SDS011;10997;52.242;8.168;2023-08-17T15:33:31;6.13;;;4.18;;
21671;SDS011;10997;52.242;8.168;2023-08-17T15:38:32;5.57;;;4.30;;
21671;SDS011;10997;52.242;8.168;2023-08-17T15:43:33;6.88;;;4.15;;
21671;SDS011;10997;52.242;8.168;2023-08-17T15:48:33;5.85;;;4.07;;
21671;SDS011;10997;52.242;8.168;2023-08-17T15:53:34;6.32;;;4.18;;
21671;SDS011;10997;52.242;8.168;2023-08-17T15:58:39;6.72;;;4.38;;
21671;SDS011;10997;52.242;8.168;2023-08-17T16:03:40;6.32;;;4.30;;
21671;SDS011;10997;52.242;8.168;2023-08-17T16:08:41;7.18;;;4.50;;
21671;SDS011;10997;52.242;8.168;2023-08-17T16:13:42;8.27;;;4.40;;
21671;SDS011;10997;52.242;8.168;2023-08-17T16:18:43;6.53;;;4.57;;
21671;SDS011;10997;52.242;8.168;2023-08-17T16:23:44;6.90;;;4.63;;
21671;SDS011;10997;52.242;8.168;2023-08-17T16:28:44;8.07;;;5.10;;
21671;SDS011;10997;52.242;8.168;2023-08-17T16:33:45;8.68;;;5.80;;
21671;SDS011;10997;52.242;8.168;2023-08-17T16:38:46;11.75;;;6.03;;
21671;SDS011;10997;52.242;8.168;2023-08-17T16:43:46;10.15;;;5.50;;
21671;SDS011;10997;52.242;8.168;2023-08-17T16:48:47;9.43;;;6.85;;
21671;SDS011;10997;52.242;8.168;2023-08-17T16:53:48;9.63;;;6.32;;
21671;SDS011;10997;52.242;8.168;2023-08-17T16:58:49;10.02;;;6.32;;
21671;SDS011;10997;52.242;8.168;2023-08-17T17:03:50;8.75;;;6.20;;
21671;SDS011;10997;52.242;8.168;2023-08-17T17:08:51;8.40;;;6.30;;
21671;SDS011;10997;52.242;8.168;2023-08-17T17:13:53;8.70;;;5.70;;
21671;SDS011;10997;52.242;8.168;2023-08-17T17:18:54;8.68;;;5.10;;
21671;SDS011;10997;52.242;8.168;2023-08-17T17:23:54;28.80;;;18.00;;
21671;SDS011;10997;52.242;8.168;2023-08-17T17:28:55;41.22;;;26.67;;
21671;SDS011;10997;52.242;8.168;2023-08-17T17:33:56;18.00;;;12.55;;
21671;SDS011;10997;52.242;8.168;2023-08-17T17:38:56;29.90;;;19.65;;
21671;SDS011;10997;52.242;8.168;2023-08-17T17:43:57;11.10;;;7.75;;
21671;SDS011;10997;52.242;8.168;2023-08-17T17:48:57;10.38;;;7.00;;
21671;SDS011;10997;52.242;8.168;2023-08-17T17:53:59;7.38;;;5.70;;
21671;SDS011;10997;52.242;8.168;2023-08-17T17:59:00;16.17;;;10.98;;
21671;SDS011;10997;52.242;8.168;2023-08-17T18:04:01;11.25;;;6.72;;
21671;SDS011;10997;52.242;8.168;2023-08-17T18:09:02;8.27;;;5.38;;
21671;SDS011;10997;52.242;8.168;2023-08-17T18:14:05;9.25;;;5.70;;
21671;SDS011;10997;52.242;8.168;2023-08-17T18:19:08;8.73;;;5.28;;
21671;SDS011;10997;52.242;8.168;2023-08-17T18:24:08;10.30;;;5.45;;
21671;SDS011;10997;52.242;8.168;2023-08-17T18:29:09;8.88;;;5.50;;
21671;SDS011;10997;52.242;8.168;2023-08-17T18:34:09;8.57;;;5.88;;
21671;SDS011;10997;52.242;8.168;2023-08-17T18:39:10;10.40;;;6.10;;
21671;SDS011;10997;52.242;8.168;2023-08-17T18:44:10;8.38;;;6.20;;
21671;SDS011;10997;52.242;8.168;2023-08-17T18:49:11;10.95;;;6.78;;
21671;SDS011;10997;52.242;8.168;2023-08-17T18:54:11;10.35;;;6.70;;
21671;SDS011;10997;52.242;8.168;2023-08-17T18:59:12;12.45;;;7.00;;
21671;SDS011;10997;52.242;8.168;2023-08-17T19:04:12;9.13;;;6.78;;
21671;SDS011;10997;52.242;8.168;2023-08-17T19:09:13;11.68;;;6.95;;
21671;SDS011;10997;52.242;8.168;2023-08-17T19:14:14;10.90;;;7.25;;
21671;SDS011;10997;52.242;8.168;2023-08-17T19:19:14;7.40;;;6.60;;
21671;SDS011;10997;52.242;8.168;2023-08-17T19:24:15;12.38;;;7.60;;
21671;SDS011;10997;52.242;8.168;2023-08-17T19:29:15;9.70;;;7.75;;
21671;SDS011;10997;52.242;8.168;2023-08-17T19:34:17;11.13;;;8.20;;
21671;SDS011;10997;52.242;8.168;2023-08-17T19:39:18;10.38;;;7.60;;
21671;SDS011;10997;52.242;8.168;2023-08-17T19:44:19;11.07;;;8.48;;
21671;SDS011;10997;52.242;8.168;2023-08-17T19:49:19;11.30;;;8.30;;
21671;SDS011;10997;52.242;8.168;2023-08-17T19:54:20;11.73;;;8.48;;
21671;SDS011;10997;52.242;8.168;2023-08-17T19:59:21;14.70;;;8.90;;
21671;SDS011;10997;52.242;8.168;2023-08-17T20:04:21;12.90;;;9.48;;
21671;SDS011;10997;52.242;8.168;2023-08-17T20:09:22;12.20;;;9.57;;
21671;SDS011;10997;52.242;8.168;2023-08-17T20:14:22;13.02;;;9.95;;
21671;SDS011;10997;52.242;8.168;2023-08-17T20:19:23;10.88;;;9.57;;
21671;SDS011;10997;52.242;8.168;2023-08-17T20:24:24;14.13;;;11.07;;
21671;SDS011;10997;52.242;8.168;2023-08-17T20:29:24;12.45;;;9.90;;
21671;SDS011;10997;52.242;8.168;2023-08-17T20:34:25;13.00;;;10.55;;
21671;SDS011;10997;52.242;8.168;2023-08-17T20:39:26;15.70;;;11.32;;
21671;SDS011;10997;52.242;8.168;2023-08-17T20:44:26;14.32;;;10.60;;
21671;SDS011;10997;52.242;8.168;2023-08-17T20:49:27;13.57;;;10.68;;
21671;SDS011;10997;52.242;8.168;2023-08-17T20:54:29;12.52;;;10.52;;
21671;SDS011;10997;52.242;8.168;2023-08-17T20:59:30;13.18;;;11.05;;
21671;SDS011;10997;52.242;8.168;2023-08-17T21:04:32;14.05;;;11.32;;
21671;SDS011;10997;52.242;8.168;2023-08-17T21:09:33;13.63;;;11.35;;
21671;SDS011;10997;52.242;8.168;2023-08-17T21:14:34;16.58;;;12.30;;
21671;SDS011;10997;52.242;8.168;2023-08-17T21:19:34;15.50;;;12.35;;
21671;SDS011;10997;52.242;8.168;2023-08-17T21:24:35;17.75;;;13.82;;
21671;SDS011;10997;52.242;8.168;2023-08-17T21:29:35;17.77;;;12.75;;
21671;SDS011;10997;52.242;8.168;2023-08-17T21:34:36;18.42;;;13.60;;
21671;SDS011;10997;52.242;8.168;2023-08-17T21:39:37;17.38;;;14.32;;
21671;SDS011;10997;52.242;8.168;2023-08-17T21:44:38;17.23;;;14.00;;
21671;SDS011;10997;52.242;8.168;2023-08-17T21:49:38;16.63;;;13.23;;
21671;SDS011;10997;52.242;8.168;2023-08-17T21:54:41;16.77;;;14.48;;
21671;SDS011;10997;52.242;8.168;2023-08-17T21:59:42;17.88;;;14.57;;
21671;SDS011;10997;52.242;8.168;2023-08-17T22:04:44;17.15;;;14.32;;
21671;SDS011;10997;52.242;8.168;2023-08-17T22:09:44;17.75;;;14.00;;
21671;SDS011;10997;52.242;8.168;2023-08-17T22:14:45;16.60;;;13.60;;
21671;SDS011;10997;52.242;8.168;2023-08-17T22:19:45;17.33;;;13.88;;
21671;SDS011;10997;52.242;8.168;2023-08-17T22:24:46;16.23;;;13.52;;
21671;SDS011;10997;52.242;8.168;2023-08-17T22:29:47;17.08;;;14.23;;
21671;SDS011;10997;52.242;8.168;2023-08-17T22:34:47;19.20;;;14.18;;
21671;SDS011;10997;52.242;8.168;2023-08-17T22:39:48;21.85;;;15.38;;
21671;SDS011;10997;52.242;8.168;2023-08-17T22:44:49;18.83;;;15.35;;
21671;SDS011;10997;52.242;8.168;2023-08-17T22:49:49;21.85;;;16.23;;
21671;SDS011;10997;52.242;8.168;2023-08-17T22:54:50;23.25;;;16.10;;
21671;SDS011;10997;52.242;8.168;2023-08-17T22:59:50;22.92;;;15.65;;
21671;SDS011;10997;52.242;8.168;2023-08-17T23:04:51;22.20;;;16.77;;
21671;SDS011;10997;52.242;8.168;2023-08-17T23:09:52;23.88;;;16.73;;
21671;SDS011;10997;52.242;8.168;2023-08-17T23:14:52;22.92;;;16.20;;
21671;SDS011;10997;52.242;8.168;2023-08-17T23:19:53;24.80;;;15.90;;
21671;SDS011;10997;52.242;8.168;2023-08-17T23:24:53;26.80;;;19.15;;
21671;SDS011;10997;52.242;8.168;2023-08-17T23:29:54;24.55;;;18.25;;
21671;SDS011;10997;52.242;8.168;2023-08-17T23:34:54;26.33;;;18.77;;
21671;SDS011;10997;52.242;8.168;2023-08-17T23:39:55;24.17;;;17.48;;
21671;SDS011;10997;52.242;8.168;2023-08-17T23:44:56;24.95;;;18.25;;
21671;SDS011;10997;52.242;8.168;2023-08-17T23:49:56;25.50;;;18.92;;
21671;SDS011;10997;52.242;8.168;2023-08-17T23:54:57;25.15;;;18.50;;
21671;SDS011;10997;52.242;8.168;2023-08-17T23:59:57;25.52;;;18.35;;
